createdAt,value
2022-12-25T00:00:45.912Z,8.15
2022-12-25T00:03:49.446Z,10.27
2022-12-25T00:06:51.910Z,7.47
2022-12-25T00:09:54.636Z,10.18
2022-12-25T00:12:57.064Z,9.07
2022-12-25T00:16:04.857Z,7.20
2022-12-25T00:19:07.369Z,6.03
2022-12-25T00:22:10.042Z,8.75
2022-12-25T00:25:12.655Z,6.90
2022-12-25T00:28:15.347Z,6.35
2022-12-25T00:31:18.135Z,7.05
2022-12-25T00:34:22.014Z,6.00
2022-12-25T00:37:24.494Z,7.00
2022-12-25T00:40:28.796Z,9.73
2022-12-25T00:43:31.213Z,7.03
2022-12-25T00:46:36.290Z,7.80
2022-12-25T00:49:38.861Z,8.07
2022-12-25T00:52:41.843Z,9.93
2022-12-25T00:55:52.104Z,8.00
2022-12-25T00:58:55.612Z,16.55
2022-12-25T01:02:18.177Z,10.37
2022-12-25T01:05:21.040Z,24.65
2022-12-25T01:08:23.460Z,14.73
2022-12-25T01:11:26.305Z,8.63
2022-12-25T01:14:28.612Z,9.15
2022-12-25T01:17:31.305Z,9.73
2022-12-25T01:20:33.668Z,9.80
2022-12-25T01:23:36.748Z,12.40
2022-12-25T01:26:39.055Z,10.70
2022-12-25T01:29:41.793Z,9.48
2022-12-25T01:32:44.260Z,9.23
2022-12-25T01:35:47.765Z,9.73
2022-12-25T01:38:51.684Z,8.95
2022-12-25T01:41:54.323Z,10.75
2022-12-25T01:45:43.819Z,8.65
2022-12-25T01:48:46.728Z,13.25
2022-12-25T01:51:54.464Z,9.55
2022-12-25T01:55:04.073Z,10.32
2022-12-25T01:58:06.696Z,12.52
2022-12-25T02:01:09.422Z,14.52
2022-12-25T02:04:25.163Z,11.02
2022-12-25T02:07:32.428Z,9.52
2022-12-25T02:10:35.447Z,9.40
2022-12-25T02:13:37.856Z,11.43
2022-12-25T02:16:56.798Z,8.80
2022-12-25T02:20:16.054Z,11.43
2022-12-25T02:23:57.057Z,6.87
2022-12-25T02:27:07.257Z,6.85
2022-12-25T02:30:10.945Z,9.35
2022-12-25T02:33:46.136Z,11.52
2022-12-25T02:36:53.885Z,10.13
2022-12-25T02:40:09.570Z,12.15
2022-12-25T02:43:39.511Z,10.50
2022-12-25T02:47:02.623Z,8.30
2022-12-25T02:50:25.808Z,11.35
2022-12-25T02:53:47.508Z,10.82
2022-12-25T02:57:11.633Z,10.25
2022-12-25T03:00:32.997Z,9.13
2022-12-25T03:03:58.747Z,9.82
2022-12-25T03:07:06.226Z,9.73
2022-12-25T03:10:29.392Z,9.20
2022-12-25T03:13:38.220Z,10.55
2022-12-25T03:16:54.099Z,8.45
2022-12-25T03:20:16.648Z,9.85
2022-12-25T03:23:42.916Z,8.45
2022-12-25T03:26:54.972Z,7.97
2022-12-25T03:30:16.254Z,8.45
2022-12-25T03:33:47.070Z,8.88
2022-12-25T03:37:28.606Z,8.90
2022-12-25T03:41:34.911Z,11.12
2022-12-25T03:45:26.558Z,10.18
2022-12-25T03:48:52.413Z,9.25
2022-12-25T03:52:18.254Z,9.18
2022-12-25T03:55:41.991Z,8.18
2022-12-25T03:59:16.526Z,10.73
2022-12-25T04:02:41.600Z,11.50
2022-12-25T04:06:02.745Z,9.02
2022-12-25T04:09:23.638Z,12.57
2022-12-25T04:12:44.758Z,8.95
2022-12-25T04:16:05.968Z,9.60
2022-12-25T04:19:28.573Z,11.85
2022-12-25T04:22:49.728Z,13.18
2022-12-25T04:26:12.103Z,10.82
2022-12-25T04:29:33.179Z,12.13
2022-12-25T04:32:54.994Z,12.65
2022-12-25T04:36:10.117Z,13.50
2022-12-25T04:39:12.877Z,15.48
2022-12-25T04:42:16.930Z,12.35
2022-12-25T04:45:20.727Z,10.73
2022-12-25T04:48:23.839Z,10.65
2022-12-25T04:51:26.502Z,14.00
2022-12-25T04:54:29.697Z,11.30
2022-12-25T04:57:32.898Z,11.55
2022-12-25T05:00:35.276Z,12.32
2022-12-25T05:03:38.940Z,12.07
2022-12-25T05:06:41.441Z,12.32
2022-12-25T05:09:44.117Z,11.43
2022-12-25T05:12:46.558Z,8.95
2022-12-25T05:15:49.761Z,14.70
2022-12-25T05:18:52.394Z,13.90
2022-12-25T05:21:55.357Z,13.05
2022-12-25T05:24:57.903Z,13.85
2022-12-25T05:28:00.854Z,11.57
2022-12-25T05:31:03.517Z,15.10
2022-12-25T05:34:06.322Z,12.15
2022-12-25T05:37:09.487Z,12.57
2022-12-25T05:40:12.213Z,15.93
2022-12-25T05:43:14.589Z,11.90
2022-12-25T05:46:17.893Z,9.65
2022-12-25T05:49:20.462Z,13.33
2022-12-25T05:52:23.464Z,9.10
2022-12-25T05:55:25.867Z,9.32
2022-12-25T05:58:28.654Z,12.77
2022-12-25T06:01:31.144Z,11.07
2022-12-25T06:04:34.182Z,12.60
2022-12-25T06:07:36.516Z,10.52
2022-12-25T06:10:40.233Z,12.52
2022-12-25T06:13:42.852Z,10.95
2022-12-25T06:16:45.763Z,12.10
2022-12-25T06:19:48.171Z,10.20
2022-12-25T06:22:50.839Z,14.50
2022-12-25T06:25:53.331Z,12.55
2022-12-25T06:28:55.980Z,9.35
2022-12-25T06:31:59.068Z,10.45
2022-12-25T06:35:02.386Z,11.93
2022-12-25T06:38:04.769Z,16.60
2022-12-25T06:41:11.183Z,9.10
2022-12-25T06:44:14.413Z,13.95
2022-12-25T06:47:17.616Z,11.73
2022-12-25T06:50:19.916Z,11.25
2022-12-25T06:53:22.575Z,10.32
2022-12-25T06:56:27.949Z,12.98
2022-12-25T06:59:30.634Z,11.57
2022-12-25T07:02:33.604Z,10.60
2022-12-25T07:05:36.438Z,13.25
2022-12-25T07:08:38.820Z,13.18
2022-12-25T07:11:42.437Z,12.13
2022-12-25T07:14:48.809Z,15.02
2022-12-25T07:17:51.635Z,14.55
2022-12-25T07:20:55.837Z,13.07
2022-12-25T07:23:58.573Z,12.05
2022-12-25T07:27:01.020Z,14.87
2022-12-25T07:30:04.306Z,14.27
2022-12-25T07:33:06.859Z,13.40
2022-12-25T07:36:13.429Z,15.77
2022-12-25T07:39:16.403Z,12.00
2022-12-25T07:42:24.817Z,13.73
2022-12-25T07:45:29.839Z,13.30
2022-12-25T07:48:32.968Z,13.10
2022-12-25T07:51:35.384Z,13.80
2022-12-25T07:54:38.096Z,14.87
2022-12-25T07:57:40.430Z,16.33
2022-12-25T08:00:43.129Z,12.25
2022-12-25T08:03:54.476Z,12.73
2022-12-25T08:06:56.977Z,14.45
2022-12-25T08:09:59.851Z,13.95
2022-12-25T08:13:02.305Z,13.30
2022-12-25T08:16:11.042Z,12.00
2022-12-25T08:19:14.974Z,13.45
2022-12-25T08:22:17.707Z,15.25
2022-12-25T08:25:20.057Z,13.40
2022-12-25T08:28:23.935Z,10.60
2022-12-25T08:31:28.822Z,10.93
2022-12-25T08:34:31.554Z,13.77
2022-12-25T08:37:33.935Z,16.85
2022-12-25T08:40:36.655Z,13.75
2022-12-25T08:43:39.514Z,13.07
2022-12-25T08:46:43.745Z,12.52
2022-12-25T08:49:46.235Z,10.57
2022-12-25T08:52:49.297Z,12.05
2022-12-25T08:56:03.770Z,11.82
2022-12-25T08:59:06.526Z,11.75
2022-12-25T09:02:11.858Z,12.50
2022-12-25T09:05:16.975Z,12.35
2022-12-25T09:08:21.717Z,12.90
2022-12-25T09:11:24.549Z,10.70
2022-12-25T09:14:26.913Z,11.77
2022-12-25T09:17:29.553Z,14.43
2022-12-25T09:20:33.037Z,10.88
2022-12-25T09:23:38.938Z,12.00
2022-12-25T09:26:41.350Z,14.52
2022-12-25T09:29:43.997Z,12.65
2022-12-25T09:32:46.390Z,12.25
2022-12-25T09:35:59.401Z,13.62
2022-12-25T09:39:01.971Z,13.93
2022-12-25T09:42:16.927Z,12.05
2022-12-25T09:45:28.645Z,10.40
2022-12-25T09:48:40.369Z,13.02
2022-12-25T09:51:45.422Z,17.85
2022-12-25T09:55:06.431Z,12.77
2022-12-25T09:58:13.621Z,11.20
2022-12-25T10:01:41.270Z,13.98
2022-12-25T10:04:43.922Z,11.88
2022-12-25T10:08:01.657Z,11.30
2022-12-25T10:11:23.400Z,15.35
2022-12-25T10:14:38.821Z,10.98
2022-12-25T10:17:49.920Z,14.63
2022-12-25T10:20:56.667Z,14.48
2022-12-25T10:23:59.320Z,13.95
2022-12-25T10:27:07.356Z,9.88
2022-12-25T10:30:15.934Z,13.73
2022-12-25T10:33:18.713Z,11.70
2022-12-25T10:36:24.940Z,10.93
2022-12-25T10:39:27.548Z,10.13
2022-12-25T10:42:38.734Z,13.48
2022-12-25T10:45:49.645Z,13.80
2022-12-25T10:48:56.834Z,8.38
2022-12-25T10:51:59.427Z,12.37
2022-12-25T10:55:11.961Z,10.75
2022-12-25T10:58:20.602Z,8.13
2022-12-25T11:01:28.363Z,9.52
2022-12-25T11:04:35.651Z,8.75
2022-12-25T11:07:51.322Z,8.25
2022-12-25T11:11:06.593Z,8.13
2022-12-25T11:14:18.698Z,8.25
2022-12-25T11:17:25.088Z,8.98
2022-12-25T11:20:28.227Z,9.40
2022-12-25T11:23:32.852Z,9.20
2022-12-25T11:26:47.548Z,8.75
2022-12-25T11:29:54.180Z,6.95
2022-12-25T11:33:02.405Z,7.18
2022-12-25T11:36:16.431Z,8.90
2022-12-25T11:39:27.862Z,6.45
2022-12-25T11:42:37.161Z,6.47
2022-12-25T11:49:21.633Z,8.52
2022-12-25T11:52:28.031Z,5.05
2022-12-25T11:55:40.977Z,4.68
2022-12-25T11:58:51.899Z,7.35
2022-12-25T12:01:54.867Z,7.30
2022-12-25T12:05:09.246Z,9.43
2022-12-25T12:08:13.934Z,6.70
2022-12-25T12:11:27.278Z,9.70
2022-12-25T12:15:01.950Z,8.30
2022-12-25T12:18:09.036Z,5.70
2022-12-25T12:21:41.228Z,5.65
2022-12-25T12:24:46.290Z,5.45
2022-12-25T12:28:04.548Z,8.45
2022-12-25T12:31:09.442Z,5.40
2022-12-25T12:34:56.642Z,9.57
2022-12-25T12:38:04.521Z,8.80
2022-12-25T12:41:08.667Z,8.90
2022-12-25T12:44:14.426Z,10.82
2022-12-25T12:47:41.149Z,9.35
2022-12-25T12:50:43.879Z,8.55
2022-12-25T12:53:46.381Z,12.55
2022-12-25T12:57:01.166Z,6.68
2022-12-25T13:00:10.902Z,8.93
2022-12-25T13:03:13.815Z,9.20
2022-12-25T13:06:41.681Z,8.65
2022-12-25T13:10:25.767Z,10.50
2022-12-25T13:13:40.901Z,11.10
2022-12-25T13:16:46.642Z,10.68
2022-12-25T13:19:54.973Z,10.48
2022-12-25T13:22:57.684Z,12.50
2022-12-25T13:26:06.707Z,7.87
2022-12-25T13:29:36.690Z,7.22
2022-12-25T13:32:39.157Z,7.72
2022-12-25T13:35:45.430Z,9.73
2022-12-25T13:38:51.114Z,8.95
2022-12-25T13:42:06.898Z,8.65
2022-12-25T13:45:36.407Z,9.45
2022-12-25T13:48:39.158Z,13.60
2022-12-25T13:51:42.274Z,8.80
2022-12-25T13:54:59.370Z,8.30
2022-12-25T13:58:05.683Z,6.82
2022-12-25T14:01:11.784Z,6.43
2022-12-25T14:04:18.715Z,6.15
2022-12-25T14:07:24.186Z,9.65
2022-12-25T14:10:35.556Z,9.30
2022-12-25T14:13:41.912Z,8.07
2022-12-25T14:16:48.879Z,12.65
2022-12-25T14:20:04.084Z,11.35
2022-12-25T14:23:15.915Z,8.15
2022-12-25T14:26:34.127Z,7.87
2022-12-25T14:29:44.711Z,10.25
2022-12-25T14:32:53.501Z,10.73
2022-12-25T14:35:56.838Z,12.37
2022-12-25T14:39:03.004Z,10.57
2022-12-25T14:42:12.928Z,12.40
2022-12-25T14:45:35.010Z,13.27
2022-12-25T14:48:39.053Z,14.73
2022-12-25T14:51:43.283Z,12.77
2022-12-25T14:54:59.965Z,18.95
2022-12-25T14:58:08.115Z,16.33
2022-12-25T15:01:33.464Z,14.98
2022-12-25T15:04:37.009Z,14.55
2022-12-25T15:07:39.959Z,16.98
2022-12-25T15:11:01.015Z,16.07
2022-12-25T15:14:05.196Z,16.37
2022-12-25T15:17:27.404Z,17.12
2022-12-25T15:20:35.421Z,18.60
2022-12-25T15:23:37.748Z,21.02
2022-12-25T15:26:40.407Z,19.15
2022-12-25T15:30:09.309Z,20.08
2022-12-25T15:33:24.465Z,20.25
2022-12-25T15:36:27.743Z,16.87
2022-12-25T15:39:30.396Z,20.33
2022-12-25T15:42:33.238Z,20.17
2022-12-25T15:45:36.029Z,16.87
2022-12-25T15:48:38.408Z,20.80
2022-12-25T15:51:41.899Z,18.77
2022-12-25T15:54:44.221Z,19.03
2022-12-25T15:57:54.656Z,19.58
2022-12-25T16:00:57.029Z,19.98
2022-12-25T16:04:00.004Z,23.80
2022-12-25T16:07:02.430Z,16.90
2022-12-25T16:10:07.557Z,16.60
2022-12-25T16:13:09.851Z,22.02
2022-12-25T16:16:12.509Z,18.92
2022-12-25T16:19:14.886Z,16.60
2022-12-25T16:22:23.185Z,18.17
2022-12-25T16:25:26.120Z,18.52
2022-12-25T16:28:28.793Z,15.95
2022-12-25T16:31:31.243Z,16.20
2022-12-25T16:34:33.973Z,14.38
2022-12-25T16:37:36.510Z,19.15
2022-12-25T16:40:41.798Z,18.67
2022-12-25T16:43:44.418Z,12.02
2022-12-25T16:46:47.695Z,12.70
2022-12-25T16:49:52.378Z,13.33
2022-12-25T16:52:55.082Z,13.88
2022-12-25T16:56:05.989Z,13.70
2022-12-25T16:59:09.253Z,15.63
2022-12-25T17:02:17.398Z,18.35
2022-12-25T17:05:20.163Z,15.43
2022-12-25T17:08:22.509Z,16.87
2022-12-25T17:11:30.273Z,18.92
2022-12-25T17:14:33.960Z,15.25
2022-12-25T17:17:37.554Z,16.42
2022-12-25T17:20:39.994Z,18.37
2022-12-25T17:23:45.031Z,18.50
2022-12-25T17:26:47.925Z,16.75
2022-12-25T17:29:50.573Z,23.53
2022-12-25T17:32:53.139Z,18.85
2022-12-25T17:36:01.862Z,18.05
2022-12-25T17:39:06.505Z,17.45
2022-12-25T17:42:09.165Z,20.80
2022-12-25T17:45:11.909Z,18.75
2022-12-25T17:48:16.094Z,20.35
2022-12-25T17:54:24.092Z,24.92
2022-12-25T17:57:26.422Z,24.42
2022-12-25T18:00:29.120Z,20.85
2022-12-25T18:03:32.059Z,21.48
2022-12-25T18:06:36.209Z,27.52
2022-12-25T18:09:38.919Z,24.80
2022-12-25T18:12:43.609Z,20.98
2022-12-25T18:15:46.437Z,26.75
2022-12-25T18:18:52.382Z,21.25
2022-12-25T18:21:55.549Z,22.27
2022-12-25T18:24:57.866Z,23.52
2022-12-25T18:28:02.619Z,25.33
2022-12-25T18:31:15.865Z,26.77
2022-12-25T18:34:18.536Z,26.58
2022-12-25T18:37:21.375Z,22.10
2022-12-25T18:40:24.547Z,23.27
2022-12-25T18:43:51.499Z,23.62
2022-12-25T18:46:49.506Z,27.52
2022-12-25T18:49:52.932Z,21.45
2022-12-25T18:52:55.617Z,17.42
2022-12-25T18:56:10.898Z,20.23
2022-12-25T18:59:13.513Z,20.50
2022-12-25T19:02:16.798Z,21.75
2022-12-25T19:05:19.463Z,20.30
2022-12-25T19:08:21.930Z,19.83
2022-12-25T19:11:24.700Z,19.70
2022-12-25T19:14:28.398Z,22.52
2022-12-25T19:20:37.843Z,16.43
2022-12-25T19:23:40.604Z,15.75
2022-12-25T19:26:43.853Z,15.68
2022-12-25T19:29:46.814Z,14.75
2022-12-25T19:32:49.321Z,12.18
2022-12-25T19:35:52.113Z,15.23
2022-12-25T19:38:54.453Z,15.27
2022-12-25T19:41:57.056Z,16.10
2022-12-25T19:44:59.601Z,16.77
2022-12-25T19:48:02.212Z,16.33
2022-12-25T19:51:18.047Z,15.77
2022-12-25T19:54:21.397Z,17.27
2022-12-25T19:57:23.711Z,18.02
2022-12-25T20:00:27.345Z,18.83
2022-12-25T20:03:30.288Z,23.45
2022-12-25T20:06:33.876Z,19.33
2022-12-25T20:09:36.515Z,20.77
2022-12-25T20:12:38.975Z,18.98
2022-12-25T20:15:41.718Z,18.42
2022-12-25T20:18:44.358Z,18.25
2022-12-25T20:21:47.826Z,20.20
2022-12-25T20:24:50.209Z,20.63
2022-12-25T20:27:53.763Z,20.58
2022-12-25T20:30:56.485Z,21.50
2022-12-25T20:34:05.921Z,20.98
2022-12-25T20:37:08.374Z,21.87
2022-12-25T20:40:11.797Z,23.90
2022-12-25T20:43:14.117Z,21.70
2022-12-25T20:46:17.066Z,27.17
2022-12-25T20:49:19.426Z,23.62
2022-12-25T20:52:22.022Z,23.70
2022-12-25T20:55:24.410Z,20.88
2022-12-25T20:58:27.457Z,20.42
2022-12-25T21:01:30.906Z,22.98
2022-12-25T21:04:33.747Z,24.20
2022-12-25T21:07:36.216Z,21.70
2022-12-25T21:10:38.842Z,22.83
2022-12-25T21:13:42.899Z,22.13
2022-12-25T21:16:45.574Z,20.08
2022-12-25T21:19:49.261Z,20.80
2022-12-25T21:22:51.847Z,19.70
2022-12-25T21:25:54.898Z,20.88
2022-12-25T21:29:00.449Z,23.05
2022-12-25T21:32:21.739Z,17.12
2022-12-25T21:35:27.198Z,16.20
2022-12-25T21:38:29.861Z,25.37
2022-12-25T21:41:37.867Z,20.42
2022-12-25T21:44:40.287Z,19.05
2022-12-25T21:47:59.790Z,17.80
2022-12-25T21:51:34.412Z,21.73
2022-12-25T21:54:37.616Z,18.25
2022-12-25T21:57:40.217Z,17.97
2022-12-25T22:00:43.007Z,16.98
2022-12-25T22:03:46.079Z,15.60
2022-12-25T22:07:12.206Z,20.42
2022-12-25T22:10:15.122Z,19.58
2022-12-25T22:13:36.233Z,14.80
2022-12-25T22:17:00.282Z,14.00
2022-12-25T22:20:03.879Z,17.35
2022-12-25T22:23:07.161Z,12.27
2022-12-25T22:26:20.638Z,16.62
2022-12-25T22:29:25.233Z,15.00
2022-12-25T22:32:28.735Z,16.15
2022-12-25T22:35:31.359Z,16.20
2022-12-25T22:38:34.579Z,16.90
2022-12-25T22:41:37.772Z,15.75
2022-12-25T22:44:40.387Z,13.97
2022-12-25T22:47:43.949Z,18.12
2022-12-25T22:50:46.328Z,15.75
2022-12-25T22:53:50.009Z,20.75
2022-12-25T22:56:53.375Z,14.48
2022-12-25T22:59:56.127Z,16.60
2022-12-25T23:02:58.809Z,15.60
2022-12-25T23:06:01.745Z,16.10
2022-12-25T23:09:05.453Z,20.83
2022-12-25T23:15:30.225Z,18.80
2022-12-25T23:18:51.586Z,19.08
2022-12-25T23:22:12.527Z,16.67
2022-12-25T23:25:34.466Z,20.12
2022-12-25T23:28:57.400Z,18.58
2022-12-25T23:32:00.238Z,20.50
2022-12-25T23:35:03.279Z,19.73
2022-12-25T23:38:05.918Z,19.03
2022-12-25T23:41:08.220Z,18.62
2022-12-25T23:44:12.910Z,18.45
2022-12-25T23:47:15.319Z,21.95
2022-12-25T23:50:17.925Z,17.30
2022-12-25T23:53:20.378Z,21.92
2022-12-25T23:56:23.431Z,16.75
2022-12-25T23:59:28.096Z,18.92
